Time;durP1;ratioP1;P1;durP2;ratioP2;P2;SDS_P1;SDS_P2;PMS_P1;PMS_P2;Temp;Humidity;BMP_temperature;BMP_pressure;BME280_temperature;BME280_humidity;BME280_pressure;Samples;Min_cycle;Max_cycle;Signal;HPM_P1;HPM_P2
2022/03/11 00:00:51;;;;;;;5.40;2.37;;;;;;;;;;10261426;28;19973;-71
2022/03/11 00:05:54;;;;;;;11.30;4.03;;;;;;;;;;10284186;28;20038;-72
2022/03/11 00:10:57;;;;;;;9.77;4.20;;;;;;;;;;10268639;28;20515;-72
2022/03/11 00:16:03;;;;;;;3.10;2.17;;;;;;;;;;10280609;28;20039;-71
2022/03/11 00:21:08;;;;;;;8.10;3.93;;;;;;;;;;10264372;28;20533;-72
2022/03/11 00:26:10;;;;;;;8.47;2.57;;;;;;;;;;10266012;28;20058;-72
2022/03/11 00:31:15;;;;;;;12.17;3.57;;;;;;;;;;10275358;28;20035;-72
2022/03/11 00:36:18;;;;;;;6.32;2.05;;;;;;;;;;10257635;28;20043;-72
2022/03/11 00:41:21;;;;;;;7.90;3.23;;;;;;;;;;10279955;28;20050;-70
2022/03/11 00:46:25;;;;;;;7.13;2.37;;;;;;;;;;10275601;28;20070;-71
2022/03/11 00:51:27;;;;;;;;;;;;;;;;;;10263624;28;20073;-71
2022/03/11 00:56:31;;;;;;;9.77;3.10;;;;;;;;;;10277701;28;19984;-71
2022/03/11 01:01:35;;;;;;;6.77;2.20;;;;;;;;;;10276569;28;20045;-71
2022/03/11 01:06:38;;;;;;;9.40;3.00;;;;;;;;;;10263804;28;20038;-74
2022/03/11 01:11:41;;;;;;;3.67;1.63;;;;;;;;;;10264174;28;20062;-71
2022/03/11 01:16:45;;;;;;;7.07;1.60;;;;;;;;;;10279858;28;20050;-71
2022/03/11 01:21:48;;;;;;;;;;;;;;;;;;10250872;28;20046;-69
2022/03/11 01:26:50;;;;;;;4.50;1.50;;;;;;;;;;10263280;28;20555;-70
2022/03/11 01:31:56;;;;;;;3.90;1.47;;;;;;;;;;10278563;28;20034;-69
2022/03/11 01:36:58;;;;;;;10.10;3.17;;;;;;;;;;10278933;28;20118;-71
2022/03/11 01:42:01;;;;;;;4.00;1.87;;;;;;;;;;10279004;28;20050;-71
2022/03/11 01:47:07;;;;;;;5.53;2.13;;;;;;;;;;10274468;28;20049;-71
2022/03/11 01:52:12;;;;;;;1.87;0.90;;;;;;;;;;10259044;28;20039;-72
2022/03/11 01:57:15;;;;;;;5.40;1.40;;;;;;;;;;10272482;28;20499;-71
2022/03/11 02:02:19;;;;;;;5.47;2.33;;;;;;;;;;10258764;28;20035;-71
2022/03/11 02:07:22;;;;;;;1.63;1.17;;;;;;;;;;10275150;28;20043;-72
2022/03/11 02:12:29;;;;;;;4.67;1.60;;;;;;;;;;10276033;28;20038;-72
2022/03/11 02:17:33;;;;;;;2.67;1.30;;;;;;;;;;10261064;28;20543;-71
2022/03/11 02:22:37;;;;;;;4.63;2.03;;;;;;;;;;10277838;28;20031;-72
2022/03/11 02:27:47;;;;;;;3.70;1.60;;;;;;;;;;10282411;28;20039;-72
2022/03/11 02:32:53;;;;;;;4.63;2.00;;;;;;;;;;10285865;28;20074;-70
2022/03/11 02:37:57;;;;;;;2.80;1.77;;;;;;;;;;10282985;28;20042;-71
2022/03/11 02:43:02;;;;;;;4.70;1.37;;;;;;;;;;10262983;28;20503;-70
2022/03/11 02:48:05;;;;;;;8.68;2.35;;;;;;;;;;10264333;28;20042;-70
2022/03/11 02:53:08;;;;;;;1.73;1.03;;;;;;;;;;10283169;23;20068;-72
2022/03/11 02:58:12;;;;;;;2.53;1.27;;;;;;;;;;10280920;28;20038;-73
2022/03/11 03:03:15;;;;;;;;;;;;;;;;;;10264365;28;20084;-73
2022/03/11 03:08:18;;;;;;;5.70;1.47;;;;;;;;;;10275793;28;19937;-74
2022/03/11 03:13:23;;;;;;;2.63;1.73;;;;;;;;;;10279913;28;20047;-72
2022/03/11 03:18:26;;;;;;;;;;;;;;;;;;10278519;28;20391;-73
2022/03/11 03:23:29;;;;;;;3.73;2.00;;;;;;;;;;10275403;28;20858;-73
2022/03/11 03:28:33;;;;;;;6.30;1.87;;;;;;;;;;10273493;28;20130;-75
2022/03/11 03:33:36;;;;;;;4.03;1.33;;;;;;;;;;10279432;28;20039;-73
2022/03/11 03:38:39;;;;;;;6.60;2.50;;;;;;;;;;10272479;28;20039;-74
2022/03/11 03:43:44;;;;;;;1.70;1.17;;;;;;;;;;10274153;28;20519;-74
2022/03/11 03:48:47;;;;;;;2.07;1.80;;;;;;;;;;10269549;28;20109;-74
2022/03/11 03:53:50;;;;;;;2.50;0.93;;;;;;;;;;10260480;28;20079;-74
2022/03/11 03:58:54;;;;;;;3.53;1.37;;;;;;;;;;10273751;28;20042;-75
2022/03/11 04:04:02;;;;;;;6.13;2.10;;;;;;;;;;10258228;28;20035;-72
2022/03/11 04:09:05;;;;;;;;;;;;;;;;;;10259403;28;20047;-73
2022/03/11 04:14:11;;;;;;;5.37;1.63;;;;;;;;;;10261653;28;20465;-73
2022/03/11 04:19:19;;;;;;;5.53;2.37;;;;;;;;;;10276842;28;20046;-71
2022/03/11 04:24:23;;;;;;;5.83;2.20;;;;;;;;;;10269437;28;20090;-73
2022/03/11 04:29:27;;;;;;;5.45;2.53;;;;;;;;;;10274939;28;20070;-72
2022/03/11 04:34:30;;;;;;;;;;;;;;;;;;10261361;28;20086;-72
2022/03/11 04:39:33;;;;;;;3.33;1.77;;;;;;;;;;10273720;28;19929;-73
2022/03/11 04:44:37;;;;;;;7.23;1.93;;;;;;;;;;10255229;28;20160;-73
2022/03/11 04:49:40;;;;;;;;;;;;;;;;;;10258356;28;20085;-72
2022/03/11 04:54:43;;;;;;;3.43;1.80;;;;;;;;;;10279698;28;19969;-74
2022/03/11 04:59:48;;;;;;;4.83;2.27;;;;;;;;;;10259787;28;20667;-74
2022/03/11 05:04:51;;;;;;;1.23;1.00;;;;;;;;;;10253030;28;20039;-74
2022/03/11 05:09:53;;;;;;;5.57;1.50;;;;;;;;;;10257412;28;20448;-73
2022/03/11 05:14:58;;;;;;;4.60;2.07;;;;;;;;;;10255116;28;20038;-73
2022/03/11 05:20:01;;;;;;;;;;;;;;;;;;10273338;28;20450;-74
2022/03/11 05:25:04;;;;;;;9.00;2.37;;;;;;;;;;10257855;28;19922;-73
2022/03/11 05:30:09;;;;;;;6.10;1.30;;;;;;;;;;10270363;28;20047;-74
2022/03/11 05:35:12;;;;;;;3.77;1.30;;;;;;;;;;10279074;28;20043;-73
2022/03/11 05:40:17;;;;;;;4.00;1.83;;;;;;;;;;10260906;28;20055;-72
2022/03/11 05:45:21;;;;;;;3.07;1.90;;;;;;;;;;10256498;28;20046;-74
2022/03/11 05:50:24;;;;;;;3.15;1.33;;;;;;;;;;10259299;28;20043;-74
2022/03/11 05:55:27;;;;;;;7.00;1.93;;;;;;;;;;10262764;28;20057;-74
2022/03/11 06:00:31;;;;;;;8.57;3.03;;;;;;;;;;10285495;28;20562;-73
2022/03/11 06:05:34;;;;;;;6.63;2.37;;;;;;;;;;10260969;28;20050;-73
2022/03/11 06:10:37;;;;;;;2.77;1.80;;;;;;;;;;10284547;28;20102;-75
2022/03/11 06:15:41;;;;;;;2.57;1.27;;;;;;;;;;10283658;28;20102;-74
2022/03/11 06:20:44;;;;;;;8.47;2.93;;;;;;;;;;10261109;28;20046;-74
2022/03/11 06:25:47;;;;;;;3.27;1.37;;;;;;;;;;10265849;28;20039;-77
2022/03/11 06:30:52;;;;;;;6.60;2.43;;;;;;;;;;10283356;28;20094;-74
2022/03/11 06:35:55;;;;;;;4.47;1.50;;;;;;;;;;10283112;28;20050;-74
2022/03/11 06:40:58;;;;;;;7.00;2.77;;;;;;;;;;10279250;28;20035;-76
2022/03/11 06:46:03;;;;;;;6.33;2.37;;;;;;;;;;10283091;28;20049;-74
2022/03/11 06:51:06;;;;;;;;;;;;;;;;;;10277643;28;20041;-72
2022/03/11 06:56:09;;;;;;;5.32;2.83;;;;;;;;;;10284481;28;19926;-72
2022/03/11 07:01:16;;;;;;;17.07;4.90;;;;;;;;;;10282740;28;20513;-73
2022/03/11 07:06:20;;;;;;;12.75;5.28;;;;;;;;;;10242383;28;20302;-72
2022/03/11 07:11:23;;;;;;;10.05;4.45;;;;;;;;;;10281374;28;20418;-74
2022/03/11 07:16:27;;;;;;;11.38;5.25;;;;;;;;;;10279742;28;20069;-75
2022/03/11 07:21:30;;;;;;;11.65;5.22;;;;;;;;;;10273968;23;20185;-66
2022/03/11 07:26:33;;;;;;;11.65;5.47;;;;;;;;;;10272226;28;20580;-67
2022/03/11 07:31:38;;;;;;;12.20;4.93;;;;;;;;;;10272990;28;20067;-67
2022/03/11 07:36:41;;;;;;;15.55;6.03;;;;;;;;;;10256624;28;20039;-68
2022/03/11 07:41:44;;;;;;;14.20;6.30;;;;;;;;;;10273902;28;20053;-67
2022/03/11 07:46:48;;;;;;;13.00;6.38;;;;;;;;;;10262199;28;20050;-69
2022/03/11 07:51:51;;;;;;;12.27;5.70;;;;;;;;;;10274074;28;20051;-68
2022/03/11 07:56:54;;;;;;;;;;;;;;;;;;10276004;28;20046;-68
2022/03/11 08:01:59;;;;;;;12.35;6.80;;;;;;;;;;10259006;28;19950;-67
2022/03/11 08:07:06;;;;;;;12.85;7.07;;;;;;;;;;10275827;28;20130;-69
2022/03/11 08:12:10;;;;;;;13.80;7.15;;;;;;;;;;10258768;28;20431;-68
2022/03/11 08:17:15;;;;;;;16.60;7.80;;;;;;;;;;10258022;28;20043;-67
2022/03/11 08:22:18;;;;;;;;;;;;;;;;;;10259421;28;20398;-68
2022/03/11 08:27:21;;;;;;;13.60;7.53;;;;;;;;;;10274524;28;20008;-68
2022/03/11 08:32:25;;;;;;;13.27;7.25;;;;;;;;;;10275578;28;20058;-69
2022/03/11 08:37:28;;;;;;;15.23;7.75;;;;;;;;;;10260650;28;20459;-69
2022/03/11 08:42:37;;;;;;;16.67;7.60;;;;;;;;;;10271571;28;20031;-67
2022/03/11 08:47:41;;;;;;;11.73;6.40;;;;;;;;;;10267303;28;20082;-69
2022/03/11 08:52:44;;;;;;;14.55;7.65;;;;;;;;;;10298989;23;20058;-71
2022/03/11 08:57:51;;;;;;;13.82;7.15;;;;;;;;;;10277950;28;20483;-72
2022/03/11 09:02:55;;;;;;;10.35;6.55;;;;;;;;;;10276856;28;20053;-73
2022/03/11 09:08:04;;;;;;;17.85;7.32;;;;;;;;;;10275142;28;20039;-70
2022/03/11 09:13:07;;;;;;;12.63;7.40;;;;;;;;;;10280893;28;20045;-70
2022/03/11 09:18:11;;;;;;;18.77;7.53;;;;;;;;;;10255471;28;20477;-72
2022/03/11 09:23:15;;;;;;;12.35;8.77;;;;;;;;;;10275213;28;20474;-71
2022/03/11 09:28:17;;;;;;;16.48;7.75;;;;;;;;;;10278082;28;20506;-71
2022/03/11 09:33:22;;;;;;;10.65;7.28;;;;;;;;;;10276143;28;20031;-72
2022/03/11 09:38:25;;;;;;;12.15;7.10;;;;;;;;;;10288626;28;20038;-70
2022/03/11 09:43:29;;;;;;;11.02;6.63;;;;;;;;;;10277265;28;20031;-72
2022/03/11 09:48:35;;;;;;;13.68;7.65;;;;;;;;;;10282650;28;20325;-72
2022/03/11 09:53:38;;;;;;;10.57;6.63;;;;;;;;;;10282733;28;20042;-71
2022/03/11 09:58:41;;;;;;;12.30;7.47;;;;;;;;;;10277440;28;20498;-72
2022/03/11 10:03:45;;;;;;;14.00;8.15;;;;;;;;;;10294148;28;20513;-72
2022/03/11 10:08:49;;;;;;;13.65;8.15;;;;;;;;;;10271728;28;20955;-70
2022/03/11 10:13:52;;;;;;;15.18;9.15;;;;;;;;;;10292290;28;20438;-71
2022/03/11 10:18:57;;;;;;;16.83;11.52;;;;;;;;;;10272876;28;20039;-71
2022/03/11 10:24:01;;;;;;;13.90;8.25;;;;;;;;;;10270221;28;20066;-72
2022/03/11 10:29:05;;;;;;;14.25;10.77;;;;;;;;;;10284747;28;20038;-69
2022/03/11 10:34:13;;;;;;;10.70;8.07;;;;;;;;;;10286466;28;20440;-73
2022/03/11 10:39:17;;;;;;;14.50;8.48;;;;;;;;;;10278820;28;20444;-72
2022/03/11 10:44:21;;;;;;;11.88;8.13;;;;;;;;;;10278888;28;20384;-72
2022/03/11 10:49:27;;;;;;;12.48;8.80;;;;;;;;;;10278642;28;20051;-71
2022/03/11 10:54:30;;;;;;;17.70;13.15;;;;;;;;;;10266119;28;20034;-71
2022/03/11 10:59:39;;;;;;;14.27;8.75;;;;;;;;;;10269784;28;20078;-73
2022/03/11 11:04:45;;;;;;;14.18;8.77;;;;;;;;;;10287586;28;20097;-72
2022/03/11 11:09:47;;;;;;;14.68;8.50;;;;;;;;;;10260540;28;20495;-72
2022/03/11 11:14:52;;;;;;;14.02;8.63;;;;;;;;;;10286439;28;20050;-72
2022/03/11 11:19:58;;;;;;;12.48;8.05;;;;;;;;;;10278245;28;20174;-71
2022/03/11 11:25:02;;;;;;;14.10;9.38;;;;;;;;;;10268240;28;20101;-70
2022/03/11 11:30:06;;;;;;;12.50;8.70;;;;;;;;;;10290943;28;20043;-72
2022/03/11 11:35:25;;;;;;;18.38;9.05;;;;;;;;;;10269760;28;20070;-72
2022/03/11 11:40:30;;;;;;;11.98;9.10;;;;;;;;;;10266560;28;20100;-71
2022/03/11 11:45:43;;;;;;;15.15;9.07;;;;;;;;;;10283259;28;20121;-71
2022/03/11 11:50:50;;;;;;;15.18;9.65;;;;;;;;;;10252529;28;20155;-73
2022/03/11 11:55:53;;;;;;;9.98;6.07;;;;;;;;;;10282168;28;20047;-72
2022/03/11 12:00:56;;;;;;;13.35;9.25;;;;;;;;;;10282151;28;20075;-71
2022/03/11 12:06:01;;;;;;;12.13;8.43;;;;;;;;;;10265995;28;20034;-72
2022/03/11 12:11:05;;;;;;;16.35;9.18;;;;;;;;;;10273848;28;20419;-71
2022/03/11 12:16:17;;;;;;;12.82;9.02;;;;;;;;;;10253063;28;20098;-71
2022/03/11 12:21:19;;;;;;;;;;;;;;;;;;10262975;28;20047;-70
2022/03/11 12:26:34;;;;;;;16.23;9.02;;;;;;;;;;10276983;28;20358;-71
2022/03/11 12:31:37;;;;;;;14.50;9.20;;;;;;;;;;10264153;28;20070;-74
2022/03/11 12:36:41;;;;;;;13.32;8.80;;;;;;;;;;10280766;28;20584;-71
2022/03/11 12:41:45;;;;;;;14.35;7.25;;;;;;;;;;10276361;28;20085;-71
2022/03/11 12:46:48;;;;;;;13.65;8.38;;;;;;;;;;10265309;28;20070;-72
2022/03/11 12:51:51;;;;;;;17.02;8.90;;;;;;;;;;10270606;28;20043;-72
2022/03/11 12:56:58;;;;;;;24.45;10.93;;;;;;;;;;10272407;28;20039;-70
2022/03/11 13:02:01;;;;;;;16.58;8.70;;;;;;;;;;10275476;28;20518;-71
2022/03/11 13:07:04;;;;;;;14.40;8.25;;;;;;;;;;10275065;28;20427;-70
2022/03/11 13:12:24;;;;;;;11.30;6.03;;;;;;;;;;10262523;28;20097;-71
2022/03/11 13:17:28;;;;;;;18.27;9.38;;;;;;;;;;10280564;28;20512;-71
2022/03/11 13:22:31;;;;;;;;;;;;;;;;;;10286105;28;20035;-71
2022/03/11 13:27:39;;;;;;;13.27;7.80;;;;;;;;;;10286887;28;19922;-70
2022/03/11 13:32:42;;;;;;;16.25;8.00;;;;;;;;;;10297042;28;20035;-71
2022/03/11 13:37:45;;;;;;;13.82;7.80;;;;;;;;;;10281115;28;20070;-73
2022/03/11 13:43:09;;;;;;;13.05;8.07;;;;;;;;;;10284998;28;20034;-72
2022/03/11 13:48:16;;;;;;;15.98;7.80;;;;;;;;;;10279750;28;20097;-73
2022/03/11 13:53:26;;;;;;;14.52;7.72;;;;;;;;;;10254686;28;20035;-72
2022/03/11 13:58:30;;;;;;;17.77;7.38;;;;;;;;;;10265272;28;20046;-71
2022/03/11 14:03:41;;;;;;;16.20;7.68;;;;;;;;;;10275738;28;20043;-71
2022/03/11 14:08:50;;;;;;;14.73;7.47;;;;;;;;;;10272341;28;20446;-71
2022/03/11 14:13:54;;;;;;;26.10;7.97;;;;;;;;;;10273519;28;20046;-70
2022/03/11 14:18:57;;;;;;;31.42;8.88;;;;;;;;;;10282064;28;20043;-70
2022/03/11 14:24:00;;;;;;;14.13;6.93;;;;;;;;;;10284572;28;20035;-70
2022/03/11 14:29:05;;;;;;;12.07;6.00;;;;;;;;;;10285813;28;20070;-72
2022/03/11 14:34:08;;;;;;;13.70;6.88;;;;;;;;;;10289064;28;20482;-71
2022/03/11 14:39:11;;;;;;;18.10;7.43;;;;;;;;;;10279782;28;20065;-72
2022/03/11 14:44:15;;;;;;;12.75;5.18;;;;;;;;;;10298933;28;20069;-71
2022/03/11 14:49:18;;;;;;;35.80;8.63;;;;;;;;;;10289642;28;20093;-69
2022/03/11 14:54:21;;;;;;;66.57;11.10;;;;;;;;;;10291199;28;20027;-72
2022/03/11 14:59:28;;;;;;;30.43;7.97;;;;;;;;;;10291912;28;20053;-72
2022/03/11 15:04:32;;;;;;;80.80;11.35;;;;;;;;;;10292189;28;20038;-71
2022/03/11 15:09:34;;;;;;;16.37;7.33;;;;;;;;;;10282419;28;20101;-70
2022/03/11 15:14:39;;;;;;;17.20;7.20;;;;;;;;;;10271188;28;20043;-71
2022/03/11 15:19:41;;;;;;;14.80;6.57;;;;;;;;;;10296318;28;20272;-71
2022/03/11 15:24:46;;;;;;;;;;;;;;;;;;10283403;28;20046;-70
2022/03/11 15:29:50;;;;;;;16.03;7.53;;;;;;;;;;10266714;28;19926;-71
2022/03/11 15:34:54;;;;;;;12.32;6.13;;;;;;;;;;10295497;28;20305;-70
2022/03/11 15:39:56;;;;;;;;;;;;;;;;;;10293400;28;20407;-71
2022/03/11 15:45:01;;;;;;;11.45;5.07;;;;;;;;;;10279972;28;19969;-68
2022/03/11 15:50:05;;;;;;;14.80;6.55;;;;;;;;;;10287899;28;20118;-71
2022/03/11 15:55:12;;;;;;;13.40;6.03;;;;;;;;;;10275579;28;20082;-68
2022/03/11 16:00:17;;;;;;;15.02;6.95;;;;;;;;;;10288562;28;20046;-71
2022/03/11 16:05:21;;;;;;;13.95;6.15;;;;;;;;;;10276740;28;20491;-69
2022/03/11 16:10:28;;;;;;;13.75;6.00;;;;;;;;;;10278192;28;20215;-70
2022/03/11 16:15:32;;;;;;;14.77;5.82;;;;;;;;;;10268862;28;20046;-70
2022/03/11 16:20:36;;;;;;;14.23;6.13;;;;;;;;;;10260816;28;20142;-71
2022/03/11 16:25:39;;;;;;;15.68;6.45;;;;;;;;;;10255927;28;20129;-70
2022/03/11 16:30:54;;;;;;;19.88;6.75;;;;;;;;;;10276605;28;20074;-70
2022/03/11 16:36:17;;;;;;;14.00;6.75;;;;;;;;;;10260230;28;20562;-69
2022/03/11 16:41:21;;;;;;;15.35;6.00;;;;;;;;;;10257967;28;20042;-69
2022/03/11 16:46:24;;;;;;;;;;;;;;;;;;10283560;28;20062;-69
2022/03/11 16:51:29;;;;;;;16.75;5.80;;;;;;;;;;10262205;28;20370;-70
2022/03/11 16:56:32;;;;;;;5.32;3.35;;;;;;;;;;10281645;28;20041;-70
2022/03/11 17:01:35;;;;;;;18.98;5.57;;;;;;;;;;10276139;28;20043;-69
2022/03/11 17:06:39;;;;;;;;;;;;;;;;;;10266345;28;20641;-69
2022/03/11 17:11:43;;;;;;;12.82;5.35;;;;;;;;;;10274918;28;19930;-70
2022/03/11 17:16:47;;;;;;;13.93;4.40;;;;;;;;;;10273748;28;20045;-71
2022/03/11 17:21:50;;;;;;;17.57;5.20;;;;;;;;;;10261601;28;20042;-71
2022/03/11 17:26:54;;;;;;;13.95;5.78;;;;;;;;;;10279639;28;20053;-69
2022/03/11 17:32:03;;;;;;;12.65;5.47;;;;;;;;;;10286809;28;20586;-70
2022/03/11 17:37:06;;;;;;;11.00;4.80;;;;;;;;;;10280358;28;20042;-71
2022/03/11 17:42:10;;;;;;;14.50;3.90;;;;;;;;;;10276843;28;20443;-71
2022/03/11 17:47:13;;;;;;;14.63;4.73;;;;;;;;;;10263936;28;20038;-69
2022/03/11 17:52:18;;;;;;;11.65;4.75;;;;;;;;;;10259806;28;20110;-70
2022/03/11 17:57:22;;;;;;;10.25;4.70;;;;;;;;;;10267742;28;20418;-71
2022/03/11 18:02:25;;;;;;;6.13;2.55;;;;;;;;;;10269870;28;20066;-70
2022/03/11 18:07:34;;;;;;;12.40;5.20;;;;;;;;;;10268192;28;20122;-72
2022/03/11 18:12:39;;;;;;;12.43;4.33;;;;;;;;;;10284782;28;20069;-70
2022/03/11 18:17:43;;;;;;;12.23;4.47;;;;;;;;;;10278090;28;20051;-69
2022/03/11 18:22:46;;;;;;;8.60;3.47;;;;;;;;;;10263598;28;20053;-70
2022/03/11 18:27:50;;;;;;;8.53;3.20;;;;;;;;;;10264473;28;20047;-70
2022/03/11 18:32:53;;;;;;;9.07;3.53;;;;;;;;;;10282068;28;20093;-69
2022/03/11 18:37:57;;;;;;;10.77;3.93;;;;;;;;;;10265016;28;20562;-71
2022/03/11 18:43:03;;;;;;;9.17;3.17;;;;;;;;;;10283252;28;20043;-70
2022/03/11 18:48:07;;;;;;;5.40;2.57;;;;;;;;;;10272290;28;20558;-70
2022/03/11 18:53:12;;;;;;;10.18;3.80;;;;;;;;;;10275033;28;20039;-72
2022/03/11 18:58:18;;;;;;;7.27;2.17;;;;;;;;;;10284639;28;20134;-70
2022/03/11 19:03:21;;;;;;;8.87;3.60;;;;;;;;;;10274302;28;20066;-71
2022/03/11 19:08:25;;;;;;;9.45;4.05;;;;;;;;;;10277436;28;20479;-71
2022/03/11 19:13:29;;;;;;;9.37;3.87;;;;;;;;;;10263054;28;20044;-70
2022/03/11 19:18:32;;;;;;;;;;;;;;;;;;10280247;28;20031;-70
2022/03/11 19:23:36;;;;;;;9.43;3.47;;;;;;;;;;10275231;28;19922;-70
2022/03/11 19:28:42;;;;;;;9.50;2.07;;;;;;;;;;10260642;28;20086;-70
2022/03/11 19:33:46;;;;;;;8.53;3.50;;;;;;;;;;10262021;28;20058;-69
2022/03/11 19:38:49;;;;;;;8.30;1.87;;;;;;;;;;10267236;28;20057;-70
2022/03/11 19:43:58;;;;;;;10.47;3.43;;;;;;;;;;10279337;28;20042;-71
2022/03/11 19:49:01;;;;;;;5.83;2.67;;;;;;;;;;10276043;28;20035;-69
2022/03/11 19:54:05;;;;;;;9.80;3.83;;;;;;;;;;10274455;28;20039;-71
2022/03/11 19:59:10;;;;;;;6.95;2.25;;;;;;;;;;10265352;28;20039;-70
2022/03/11 20:04:12;;;;;;;;;;;;;;;;;;10276664;28;20034;-69
2022/03/11 20:09:15;;;;;;;5.37;2.27;;;;;;;;;;10265389;28;19922;-69
2022/03/11 20:14:20;;;;;;;11.33;3.73;;;;;;;;;;10265801;28;20034;-70
2022/03/11 20:19:24;;;;;;;8.63;3.67;;;;;;;;;;10265634;28;20074;-69
2022/03/11 20:24:27;;;;;;;9.23;3.53;;;;;;;;;;10270148;28;20116;-70
2022/03/11 20:29:32;;;;;;;7.63;2.97;;;;;;;;;;10262918;28;20034;-71
2022/03/11 20:34:35;;;;;;;8.57;3.07;;;;;;;;;;10275950;28;20043;-71
2022/03/11 20:39:38;;;;;;;7.77;3.27;;;;;;;;;;10255197;28;20036;-69
2022/03/11 20:44:42;;;;;;;10.60;3.63;;;;;;;;;;10262716;28;20327;-70
2022/03/11 20:49:46;;;;;;;;;;;;;;;;;;10261176;28;20042;-70
2022/03/11 20:54:48;;;;;;;8.30;2.67;;;;;;;;;;10272759;28;20456;-70
2022/03/11 20:59:53;;;;;;;11.67;3.97;;;;;;;;;;10277427;28;20519;-71
2022/03/11 21:04:55;;;;;;;;;;;;;;;;;;10260890;28;20059;-71
2022/03/11 21:10:02;;;;;;;6.53;3.17;;;;;;;;;;10262213;28;19922;-70
2022/03/11 21:15:05;;;;;;;;;;;;;;;;;;10259869;28;20046;-69
2022/03/11 21:20:11;;;;;;;1.40;0.77;;;;;;;;;;10277308;28;19970;-68
2022/03/11 21:25:15;;;;;;;4.43;2.40;;;;;;;;;;10277167;28;20579;-70
2022/03/11 21:30:20;;;;;;;6.50;3.07;;;;;;;;;;10260606;28;20125;-70
2022/03/11 21:35:26;;;;;;;5.03;2.63;;;;;;;;;;10264901;28;20064;-70
2022/03/11 21:40:29;;;;;;;;;;;;;;;;;;10254096;28;20137;-70
2022/03/11 21:45:31;;;;;;;4.63;2.27;;;;;;;;;;10264524;28;20157;-70
2022/03/11 21:50:36;;;;;;;8.37;3.47;;;;;;;;;;10279276;28;20043;-71
2022/03/11 21:55:38;;;;;;;;;;;;;;;;;;10260272;28;20043;-70
2022/03/11 22:00:43;;;;;;;7.07;2.50;;;;;;;;;;10276297;28;19930;-71
2022/03/11 22:05:47;;;;;;;6.97;3.63;;;;;;;;;;10265380;28;20499;-73
2022/03/11 22:10:50;;;;;;;7.32;3.38;;;;;;;;;;10255791;28;20102;-69
2022/03/11 22:15:53;;;;;;;7.80;3.43;;;;;;;;;;10259712;28;20503;-69
2022/03/11 22:20:58;;;;;;;7.30;3.30;;;;;;;;;;10259625;28;20034;-70
2022/03/11 22:26:01;;;;;;;9.32;3.30;;;;;;;;;;10265991;28;20053;-70
2022/03/11 22:31:04;;;;;;;3.88;2.08;;;;;;;;;;10272914;28;20047;-69
2022/03/11 22:36:09;;;;;;;5.90;2.57;;;;;;;;;;10265190;28;20129;-69
2022/03/11 22:41:14;;;;;;;5.33;2.50;;;;;;;;;;10287048;28;20062;-71
2022/03/11 22:46:18;;;;;;;9.87;3.53;;;;;;;;;;10288537;28;20043;-70
2022/03/11 22:51:28;;;;;;;8.53;3.23;;;;;;;;;;10288636;28;20035;-72
2022/03/11 22:56:34;;;;;;;9.93;3.23;;;;;;;;;;10286677;28;20105;-71
2022/03/11 23:01:39;;;;;;;7.70;2.90;;;;;;;;;;10278593;28;20050;-70
2022/03/11 23:12:05;;;;;;;5.63;2.27;;;;;;;;;;10282789;28;20058;-69
2022/03/11 23:17:08;;;;;;;8.13;3.07;;;;;;;;;;10281584;28;20035;-70
2022/03/11 23:22:13;;;;;;;2.87;1.63;;;;;;;;;;10293033;28;20082;-69
2022/03/11 23:27:16;;;;;;;;;;;;;;;;;;10283350;28;20050;-71
2022/03/11 23:32:19;;;;;;;1.47;1.03;;;;;;;;;;10278907;28;19938;-70
2022/03/11 23:37:23;;;;;;;3.60;1.40;;;;;;;;;;10285506;28;20133;-70
2022/03/11 23:42:26;;;;;;;;;;;;;;;;;;10274118;28;20511;-70
2022/03/11 23:47:33;;;;;;;5.03;3.03;;;;;;;;;;10270757;28;19922;-69
2022/03/11 23:52:37;;;;;;;7.63;4.03;;;;;;;;;;10289520;28;20132;-69
2022/03/11 23:57:40;;;;;;;10.68;2.80;;;;;;;;;;10280954;28;20098;-71
